Time;durP1;ratioP1;P1;durP2;ratioP2;P2;SDS_P1;SDS_P2;PMS_P1;PMS_P2;Temp;Humidity;BMP_temperature;BMP_pressure;BME280_temperature;BME280_humidity;BME280_pressure;Samples;Min_cycle;Max_cycle;Signal;HPM_P1;HPM_P2
2022/10/05 00:01:48;;;;;;;7.10;1.42;;;16.50;99.90;;;;;;5031908;28;20103;-52
2022/10/05 00:04:22;;;;;;;7.55;1.33;;;16.50;99.90;;;;;;5031520;28;20049;-47
2022/10/05 00:06:53;;;;;;;10.48;1.77;;;16.50;99.90;;;;;;5032061;28;20032;-46
2022/10/05 00:09:20;;;;;;;7.55;1.30;;;16.50;99.90;;;;;;5031718;28;20144;-51
2022/10/05 00:11:47;;;;;;;5.40;1.15;;;16.50;99.90;;;;;;5031851;28;20021;-48
2022/10/05 00:14:32;;;;;;;6.00;1.30;;;16.50;99.90;;;;;;5031136;28;20036;-45
2022/10/05 00:16:57;;;;;;;5.85;1.13;;;16.50;99.90;;;;;;5031625;28;20484;-46
2022/10/05 00:19:31;;;;;;;4.78;1.00;;;16.50;99.90;;;;;;5031576;28;20038;-50
2022/10/05 00:22:10;;;;;;;2.88;1.20;;;16.50;99.90;;;;;;5031637;28;20480;-48
2022/10/05 00:24:35;;;;;;;4.43;1.20;;;16.50;99.90;;;;;;5031469;28;20053;-45
2022/10/05 00:27:11;;;;;;;8.45;1.35;;;16.50;99.90;;;;;;5031041;28;20096;-48
2022/10/05 00:29:37;;;;;;;5.45;1.20;;;16.40;99.90;;;;;;5030905;28;20041;-47
2022/10/05 00:32:03;;;;;;;5.63;1.20;;;16.50;99.90;;;;;;5031087;28;20018;-48
2022/10/05 00:34:32;;;;;;;7.35;1.40;;;16.50;99.90;;;;;;5031279;28;20038;-49
2022/10/05 00:36:58;;;;;;;6.88;1.38;;;16.50;99.90;;;;;;5031233;28;20021;-49
2022/10/05 00:39:24;;;;;;;8.50;1.30;;;16.50;99.90;;;;;;5031331;28;20160;-48
2022/10/05 00:42:05;;;;;;;6.22;1.40;;;16.50;99.90;;;;;;5030052;28;20074;-48
2022/10/05 00:44:52;;;;;;;7.28;1.40;;;16.50;99.90;;;;;;5031274;28;20041;-45
2022/10/05 00:47:33;;;;;;;7.43;1.50;;;16.50;99.90;;;;;;5031063;28;20084;-46
2022/10/05 00:50:07;;;;;;;3.50;1.20;;;16.50;99.90;;;;;;5031142;28;20488;-48
2022/10/05 00:53:18;;;;;;;7.45;1.38;;;16.50;99.90;;;;;;5031048;28;20018;-48
2022/10/05 00:56:01;;;;;;;7.47;1.70;;;16.50;99.90;;;;;;5022380;28;20037;-45
2022/10/05 00:58:30;;;;;;;6.63;1.30;;;16.50;99.90;;;;;;5031279;28;20052;-52
2022/10/05 01:01:16;;;;;;;8.18;1.30;;;16.50;99.90;;;;;;5030931;28;20043;-52
2022/10/05 01:03:59;;;;;;;10.30;1.63;;;16.60;99.90;;;;;;5030821;28;20500;-45
2022/10/05 01:06:59;;;;;;;6.93;1.63;;;16.60;99.90;;;;;;5031016;28;20033;-45
2022/10/05 01:09:53;;;;;;;6.05;1.42;;;16.60;99.90;;;;;;5029807;28;20112;-48
2022/10/05 01:12:42;;;;;;;7.40;1.27;;;16.50;99.90;;;;;;5030650;28;20456;-45
2022/10/05 01:15:08;;;;;;;;;;;16.60;99.90;;;;;;5031566;28;20057;-49
2022/10/05 01:17:39;;;;;;;7.88;1.27;;;16.60;99.90;;;;;;5030725;28;20390;-51
2022/10/05 01:20:26;;;;;;;6.88;1.60;;;16.60;99.90;;;;;;5030756;28;20036;-45
2022/10/05 01:23:03;;;;;;;7.10;1.50;;;16.60;99.90;;;;;;5030818;28;20074;-45
2022/10/05 01:25:50;;;;;;;9.45;1.52;;;16.60;99.90;;;;;;5030652;28;20416;-46
2022/10/05 01:28:22;;;;;;;9.80;1.40;;;16.60;99.90;;;;;;5034158;28;20536;-46
2022/10/05 01:31:03;;;;;;;8.73;1.60;;;16.50;99.90;;;;;;5028548;28;20029;-48
2022/10/05 01:34:03;;;;;;;5.90;1.30;;;16.60;99.90;;;;;;5034491;28;20025;-47
2022/10/05 01:36:56;;;;;;;9.30;1.58;;;16.50;99.90;;;;;;5034713;28;20152;-49
2022/10/05 01:39:54;;;;;;;3.50;1.33;;;16.60;99.90;;;;;;5034840;28;20105;-50
2022/10/05 01:42:25;;;;;;;6.93;1.20;;;16.60;99.90;;;;;;5034591;28;20025;-53
2022/10/05 01:45:03;;;;;;;6.68;1.45;;;16.60;99.90;;;;;;5034458;28;20037;-50
2022/10/05 01:47:43;;;;;;;4.40;1.23;;;16.60;99.90;;;;;;5034285;28;20017;-51
2022/10/05 01:50:12;;;;;;;3.90;1.05;;;16.60;99.90;;;;;;5034373;28;20500;-55
2022/10/05 01:52:59;;;;;;;5.00;1.17;;;16.50;99.90;;;;;;5034237;28;20439;-46
2022/10/05 01:55:54;;;;;;;5.20;1.50;;;16.60;99.90;;;;;;5032824;28;20057;-52
2022/10/05 01:58:41;;;;;;;5.20;1.60;;;16.60;99.90;;;;;;5018150;28;20033;-46
2022/10/05 02:01:15;;;;;;;6.05;1.50;;;16.60;99.90;;;;;;5034309;28;20033;-46
2022/10/05 02:04:01;;;;;;;4.05;1.50;;;16.60;99.90;;;;;;5034144;28;20497;-47
2022/10/05 02:06:32;;;;;;;4.93;1.40;;;16.60;99.90;;;;;;5034096;28;20018;-45
2022/10/05 02:09:22;;;;;;;7.20;1.65;;;16.60;99.90;;;;;;5034106;28;20022;-49
2022/10/05 02:11:56;;;;;;;7.13;1.50;;;16.70;99.90;;;;;;5034048;28;20463;-49
2022/10/05 02:14:30;;;;;;;8.75;1.50;;;16.60;99.90;;;;;;5033929;28;20034;-50
2022/10/05 02:16:58;;;;;;;5.85;1.52;;;16.60;99.90;;;;;;5033762;28;20017;-50
2022/10/05 02:19:40;;;;;;;5.47;1.88;;;16.60;99.90;;;;;;5033640;28;20048;-50
2022/10/05 02:22:12;;;;;;;7.78;2.00;;;16.70;99.90;;;;;;5033856;28;20025;-46
2022/10/05 02:24:42;;;;;;;7.57;1.50;;;16.60;99.90;;;;;;5033672;28;20040;-54
2022/10/05 02:27:09;;;;;;;6.00;1.45;;;16.70;99.90;;;;;;5033253;28;20047;-48
2022/10/05 02:29:38;;;;;;;9.63;1.77;;;16.60;99.90;;;;;;5033412;28;20041;-46
2022/10/05 02:32:13;;;;;;;8.23;1.40;;;16.70;99.90;;;;;;5033352;28;20476;-47
2022/10/05 02:34:41;;;;;;;8.95;1.80;;;16.60;99.90;;;;;;5033703;28;20052;-49
2022/10/05 02:37:30;;;;;;;3.83;1.38;;;16.60;99.90;;;;;;5033132;28;20109;-52
2022/10/05 02:40:13;;;;;;;8.40;1.75;;;16.60;99.90;;;;;;5033654;28;20025;-52
2022/10/05 02:43:02;;;;;;;6.78;1.40;;;16.70;99.90;;;;;;5033775;28;20025;-50
2022/10/05 02:45:46;;;;;;;8.27;1.50;;;16.60;99.90;;;;;;5033357;28;20029;-49
2022/10/05 02:48:23;;;;;;;7.57;1.73;;;16.70;99.90;;;;;;5033451;28;20035;-51
2022/10/05 02:51:33;;;;;;;7.30;1.35;;;16.60;99.90;;;;;;5033169;28;20027;-51
2022/10/05 02:54:09;;;;;;;10.10;1.92;;;16.60;99.90;;;;;;5021052;28;20040;-48
2022/10/05 02:56:46;;;;;;;8.77;1.70;;;16.60;99.90;;;;;;5032947;28;20048;-51
2022/10/05 02:59:23;;;;;;;7.95;1.83;;;16.60;99.90;;;;;;5032999;28;20037;-48
2022/10/05 03:01:54;;;;;;;11.63;1.70;;;16.60;99.90;;;;;;5033063;28;20495;-48
2022/10/05 03:04:36;;;;;;;5.05;1.58;;;16.60;99.90;;;;;;5032420;28;20053;-49
2022/10/05 03:07:10;;;;;;;8.85;1.98;;;16.60;99.90;;;;;;5032430;28;20373;-49
2022/10/05 03:10:03;;;;;;;7.95;1.58;;;16.60;99.90;;;;;;5019547;28;20036;-51
2022/10/05 03:12:55;;;;;;;4.72;1.67;;;16.60;99.90;;;;;;5029698;28;20481;-47
2022/10/05 03:15:45;;;;;;;5.68;1.45;;;16.60;99.90;;;;;;5032797;28;20048;-48
2022/10/05 03:18:26;;;;;;;5.45;1.58;;;16.50;99.90;;;;;;5032775;28;20494;-50
2022/10/05 03:21:14;;;;;;;4.20;1.50;;;16.60;99.90;;;;;;5032903;28;20029;-54
2022/10/05 03:24:01;;;;;;;4.50;1.30;;;16.50;99.90;;;;;;5032665;28;20026;-49
2022/10/05 03:26:33;;;;;;;7.82;1.63;;;16.60;99.90;;;;;;5032387;28;20481;-48
2022/10/05 03:29:09;;;;;;;5.80;1.75;;;16.50;99.90;;;;;;5032652;28;20051;-52
2022/10/05 03:31:44;;;;;;;3.60;1.23;;;16.50;99.90;;;;;;5032395;28;20025;-50
2022/10/05 03:34:20;;;;;;;5.28;1.50;;;16.50;99.90;;;;;;5032462;28;20112;-53
2022/10/05 03:37:01;;;;;;;4.38;1.30;;;16.50;99.90;;;;;;5032251;28;20506;-48
2022/10/05 03:39:27;;;;;;;10.10;1.70;;;16.50;99.90;;;;;;5032583;28;20052;-48
2022/10/05 03:42:13;;;;;;;3.38;1.40;;;16.60;99.90;;;;;;5032240;28;20025;-49
2022/10/05 03:44:54;;;;;;;3.20;1.27;;;16.60;99.90;;;;;;5032095;28;20029;-49
2022/10/05 03:47:45;;;;;;;4.25;1.70;;;16.60;99.90;;;;;;5031569;28;20056;-48
2022/10/05 03:50:40;;;;;;;5.20;1.60;;;16.60;99.90;;;;;;5032128;28;20064;-51
2022/10/05 03:53:13;;;;;;;6.63;1.52;;;16.60;99.90;;;;;;5031592;28;20048;-49
2022/10/05 03:55:44;;;;;;;7.47;1.58;;;16.60;99.90;;;;;;5031708;28;20022;-52
2022/10/05 03:58:20;;;;;;;8.65;1.80;;;16.60;99.90;;;;;;5031605;28;20026;-52
2022/10/05 04:00:52;;;;;;;5.32;1.50;;;16.60;99.90;;;;;;5031512;28;20021;-48
2022/10/05 04:03:33;;;;;;;6.70;1.65;;;16.60;99.90;;;;;;5031588;28;20078;-53
2022/10/05 04:06:09;;;;;;;8.82;1.63;;;16.60;99.90;;;;;;5031696;28;20472;-51
2022/10/05 04:08:59;;;;;;;6.90;1.40;;;16.60;99.90;;;;;;5031842;28;20454;-50
2022/10/05 04:11:27;;;;;;;7.35;1.67;;;16.60;99.90;;;;;;5031793;28;20021;-51
2022/10/05 04:14:14;;;;;;;5.30;1.70;;;16.60;99.90;;;;;;5031630;28;20107;-49
2022/10/05 04:16:55;;;;;;;5.75;1.52;;;16.60;99.90;;;;;;5031494;28;20603;-51
2022/10/05 04:19:26;;;;;;;6.53;1.52;;;16.60;99.90;;;;;;5031629;28;20465;-50
2022/10/05 04:22:10;;;;;;;8.75;1.83;;;16.60;99.90;;;;;;5031462;28;20032;-51
2022/10/05 04:24:43;;;;;;;8.27;1.73;;;16.60;99.90;;;;;;5031336;28;20056;-48
2022/10/05 04:27:15;;;;;;;7.05;1.65;;;16.60;99.90;;;;;;5031279;28;20422;-48
2022/10/05 04:29:49;;;;;;;7.18;1.77;;;16.60;99.90;;;;;;5031445;28;20079;-47
2022/10/05 04:32:29;;;;;;;11.23;1.98;;;16.60;99.90;;;;;;5031435;28;20098;-48
2022/10/05 04:35:13;;;;;;;;;;;16.60;99.90;;;;;;5031601;28;20033;-47
2022/10/05 04:37:50;;;;;;;9.70;2.08;;;16.60;99.90;;;;;;5031219;28;19975;-52
2022/10/05 04:40:35;;;;;;;8.13;1.75;;;16.60;99.90;;;;;;5031083;28;20436;-47
2022/10/05 04:43:08;;;;;;;8.70;1.55;;;16.60;99.90;;;;;;5031138;28;20029;-52
2022/10/05 04:45:49;;;;;;;7.88;1.80;;;16.60;99.90;;;;;;5031045;28;20057;-50
2022/10/05 04:48:43;;;;;;;10.20;2.05;;;16.60;99.90;;;;;;5031026;28;20410;-47
2022/10/05 04:51:41;;;;;;;5.85;1.70;;;16.60;99.90;;;;;;5031025;28;20099;-51
2022/10/05 04:54:43;;;;;;;4.68;1.70;;;16.60;99.90;;;;;;5025950;28;20029;-50
2022/10/05 04:57:24;;;;;;;6.45;1.55;;;16.60;99.90;;;;;;5030398;28;20029;-48
2022/10/05 05:00:05;;;;;;;7.70;2.15;;;16.60;99.90;;;;;;5030308;28;20026;-51
2022/10/05 05:02:39;;;;;;;9.27;1.70;;;16.60;99.90;;;;;;5030851;28;20125;-50
2022/10/05 05:05:30;;;;;;;7.18;1.80;;;16.60;99.90;;;;;;5030963;28;20045;-47
2022/10/05 05:08:01;;;;;;;4.15;1.50;;;16.60;99.90;;;;;;5030970;28;20033;-50
2022/10/05 05:10:47;;;;;;;8.98;1.90;;;16.60;99.90;;;;;;5031256;28;20107;-48
2022/10/05 05:13:34;;;;;;;6.10;1.50;;;16.60;99.90;;;;;;5030807;28;20124;-48
2022/10/05 05:16:21;;;;;;;5.88;1.73;;;16.60;99.90;;;;;;5030460;28;20021;-51
2022/10/05 05:19:09;;;;;;;6.50;2.00;;;16.60;99.90;;;;;;5019397;28;20025;-52
2022/10/05 05:21:59;;;;;;;6.78;1.90;;;16.60;99.90;;;;;;5027409;28;20026;-49
2022/10/05 05:25:03;;;;;;;6.07;1.90;;;16.60;99.90;;;;;;5030476;28;20527;-47
2022/10/05 05:27:58;;;;;;;8.75;2.17;;;16.60;99.90;;;;;;5030309;28;20037;-51
2022/10/05 05:30:26;;;;;;;4.88;1.65;;;16.60;99.90;;;;;;5030001;28;20112;-51
2022/10/05 05:33:05;;;;;;;7.55;1.65;;;16.60;99.90;;;;;;5030710;28;20029;-50
2022/10/05 05:35:36;;;;;;;7.40;1.83;;;16.60;99.90;;;;;;5030723;28;20021;-49
2022/10/05 05:38:15;;;;;;;10.50;2.10;;;16.60;99.90;;;;;;5026646;28;20148;-48
2022/10/05 05:40:57;;;;;;;9.68;1.85;;;16.60;99.90;;;;;;5030356;28;20049;-47
2022/10/05 05:43:40;;;;;;;6.93;1.70;;;16.60;99.90;;;;;;5030258;28;20029;-50
2022/10/05 05:46:21;;;;;;;6.13;1.95;;;16.60;99.90;;;;;;5030449;28;20036;-55
2022/10/05 05:48:47;;;;;;;8.35;1.60;;;16.60;99.90;;;;;;5027441;28;20033;-52
2022/10/05 05:51:42;;;;;;;5.15;1.88;;;16.60;99.90;;;;;;5030244;28;20029;-51
2022/10/05 05:54:32;;;;;;;9.60;2.17;;;16.60;99.90;;;;;;5028923;28;20079;-49
2022/10/05 05:57:10;;;;;;;12.95;2.40;;;16.60;99.90;;;;;;5029958;28;20018;-48
2022/10/05 06:00:22;;;;;;;5.72;1.55;;;16.60;99.90;;;;;;5030270;28;20404;-48
2022/10/05 06:03:12;;;;;;;7.70;1.63;;;16.70;99.90;;;;;;4999285;28;20022;-52
2022/10/05 06:05:46;;;;;;;8.80;1.70;;;16.70;99.90;;;;;;5029591;28;20040;-48
2022/10/05 06:08:14;;;;;;;7.30;1.85;;;16.70;99.90;;;;;;5030320;28;20037;-51
2022/10/05 06:10:54;;;;;;;6.68;1.75;;;16.70;99.90;;;;;;5029970;28;20017;-47
2022/10/05 06:13:37;;;;;;;6.80;1.48;;;16.60;99.90;;;;;;5033887;28;20029;-49
2022/10/05 06:16:30;;;;;;;7.70;1.92;;;16.60;99.90;;;;;;5031088;28;20112;-49
2022/10/05 06:19:07;;;;;;;7.65;2.00;;;16.70;99.90;;;;;;5023019;28;20064;-47
2022/10/05 06:21:51;;;;;;;4.43;1.60;;;16.70;99.90;;;;;;5033694;28;20025;-52
2022/10/05 06:24:39;;;;;;;7.65;1.92;;;16.60;99.90;;;;;;5033590;28;20029;-53
2022/10/05 06:27:08;;;;;;;12.57;2.05;;;16.60;99.90;;;;;;5033663;28;20100;-48
2022/10/05 06:29:45;;;;;;;6.75;1.95;;;16.60;99.90;;;;;;5033511;28;20025;-49
2022/10/05 06:32:29;;;;;;;8.50;1.88;;;16.70;99.90;;;;;;5033609;28;20037;-50
2022/10/05 06:35:00;;;;;;;4.95;1.83;;;16.60;99.90;;;;;;5033426;28;20083;-51
2022/10/05 06:37:32;;;;;;;6.18;1.80;;;16.60;99.90;;;;;;5033577;28;20021;-48
2022/10/05 06:40:12;;;;;;;5.95;1.67;;;16.60;99.90;;;;;;5033051;28;20156;-49
2022/10/05 06:42:56;;;;;;;9.75;1.95;;;16.60;99.90;;;;;;5033324;28;20040;-55
2022/10/05 06:46:00;;;;;;;7.40;2.00;;;16.50;99.90;;;;;;5032962;28;20068;-48
2022/10/05 06:48:49;;;;;;;4.25;1.60;;;16.50;99.90;;;;;;5033231;28;20040;-52
2022/10/05 06:51:24;;;;;;;;;;;16.40;99.90;;;;;;5033416;28;20041;-48
2022/10/05 06:54:18;;;;;;;5.78;1.80;;;16.50;99.90;;;;;;5032737;28;19995;-49
2022/10/05 06:57:09;;;;;;;6.47;2.00;;;16.50;99.90;;;;;;5027812;28;20435;-49
2022/10/05 07:00:16;;;;;;;5.75;2.35;;;16.50;99.90;;;;;;5031803;28;20027;-51
2022/10/05 07:02:47;;;;;;;8.43;1.90;;;16.50;99.90;;;;;;5031804;28;20087;-51
2022/10/05 07:05:25;;;;;;;5.38;1.60;;;16.50;99.90;;;;;;5032830;28;20032;-48
2022/10/05 07:07:56;;;;;;;8.90;1.88;;;16.50;99.90;;;;;;5032737;28;20033;-53
2022/10/05 07:10:33;;;;;;;10.77;2.05;;;16.50;99.90;;;;;;5032869;28;20133;-51
2022/10/05 07:13:22;;;;;;;9.57;2.40;;;16.50;99.90;;;;;;5032533;28;20025;-49
2022/10/05 07:16:11;;;;;;;;;;;16.40;99.90;;;;;;5030606;28;20033;-51
2022/10/05 07:19:18;;;;;;;6.27;1.83;;;16.40;99.90;;;;;;5029760;28;19984;-50
2022/10/05 07:22:13;;;;;;;6.28;1.92;;;16.40;99.90;;;;;;5030325;28;20033;-53
2022/10/05 07:24:57;;;;;;;9.40;2.17;;;16.40;99.90;;;;;;5006894;28;20038;-48
2022/10/05 07:27:27;;;;;;;7.43;1.90;;;16.50;99.90;;;;;;5032307;28;20025;-54
2022/10/05 07:30:05;;;;;;;8.48;2.00;;;16.50;99.90;;;;;;5029513;28;20049;-49
2022/10/05 07:32:43;;;;;;;5.75;1.90;;;16.60;99.90;;;;;;5028243;28;20025;-46
2022/10/05 07:37:53;;;;;;;8.45;2.00;;;16.60;99.90;;;;;;5029742;28;20381;-51
2022/10/05 07:38:04;;;;;;;8.53;1.80;;;16.60;99.90;;;;;;5028290;28;20033;-47
2022/10/05 07:40:41;;;;;;;10.80;2.28;;;16.70;99.90;;;;;;5028015;28;20100;-48
2022/10/05 07:43:32;;;;;;;8.65;2.10;;;16.80;99.90;;;;;;5031818;28;20038;-51
2022/10/05 07:46:06;;;;;;;6.40;1.77;;;16.90;99.90;;;;;;5035872;28;20091;-50
2022/10/05 07:49:04;;;;;;;10.52;1.75;;;16.90;99.90;;;;;;5028644;28;20026;-50
2022/10/05 07:51:40;;;;;;;7.20;1.75;;;17.00;99.90;;;;;;5027164;28;20025;-47
2022/10/05 07:54:05;;;;;;;9.05;1.60;;;17.00;99.90;;;;;;5029399;28;20045;-51
2022/10/05 07:56:40;;;;;;;7.38;1.40;;;17.10;99.90;;;;;;5030051;28;20034;-50
2022/10/05 07:59:14;;;;;;;5.80;1.80;;;17.20;99.90;;;;;;5028517;28;20038;-46
2022/10/05 08:01:45;;;;;;;7.38;1.80;;;17.20;99.90;;;;;;5026153;28;20041;-49
2022/10/05 08:04:18;;;;;;;8.50;1.55;;;17.20;99.90;;;;;;5028442;28;20073;-53
2022/10/05 08:07:04;;;;;;;6.38;1.80;;;17.20;99.90;;;;;;5027006;28;20112;-53
2022/10/05 08:10:04;;;;;;;9.02;1.92;;;17.30;99.90;;;;;;5027347;28;20037;-50
2022/10/05 08:12:57;;;;;;;10.63;2.03;;;17.40;99.90;;;;;;5027803;28;20036;-48
2022/10/05 08:15:31;;;;;;;8.60;1.88;;;17.50;99.90;;;;;;5029148;28;20033;-48
2022/10/05 08:18:33;;;;;;;10.95;2.05;;;17.50;99.90;;;;;;5027136;28;20025;-47
2022/10/05 08:20:59;;;;;;;13.93;2.15;;;17.60;99.90;;;;;;5022876;28;20075;-45
2022/10/05 08:23:55;;;;;;;8.00;1.75;;;17.70;99.90;;;;;;5019677;28;20416;-48
2022/10/05 08:26:48;;;;;;;9.15;1.88;;;17.80;99.90;;;;;;5026937;28;20028;-52
2022/10/05 08:29:33;;;;;;;10.48;1.98;;;17.80;99.90;;;;;;5030276;28;20223;-50
2022/10/05 08:32:08;;;;;;;8.75;1.95;;;17.90;99.90;;;;;;5030622;28;20043;-50
2022/10/05 08:34:38;;;;;;;8.10;1.83;;;18.00;99.90;;;;;;5030377;28;20542;-54
2022/10/05 08:37:12;;;;;;;10.75;2.22;;;18.00;99.90;;;;;;5034551;28;20024;-50
2022/10/05 08:39:41;;;;;;;9.50;1.50;;;18.10;99.90;;;;;;5036857;28;20028;-49
2022/10/05 08:42:10;;;;;;;9.52;2.40;;;18.20;99.90;;;;;;5037862;28;20144;-50
2022/10/05 08:45:30;;;;;;;9.23;1.73;;;18.30;99.90;;;;;;5044518;28;20045;-53
2022/10/05 08:48:49;;;;;;;7.43;1.60;;;18.40;99.90;;;;;;5006745;28;20091;-53
2022/10/05 08:51:45;;;;;;;7.93;1.50;;;18.60;99.90;;;;;;5007014;28;20115;-47
2022/10/05 08:54:35;;;;;;;7.63;1.50;;;18.70;99.90;;;;;;5031857;28;20045;-51
2022/10/05 08:57:06;;;;;;;5.78;1.35;;;18.80;99.90;;;;;;5027424;28;20507;-46
2022/10/05 08:59:50;;;;;;;7.50;1.42;;;18.90;99.90;;;;;;5028526;28;20030;-48
2022/10/05 09:02:54;;;;;;;5.40;1.73;;;18.80;99.90;;;;;;5029326;28;20030;-49
2022/10/05 09:05:40;;;;;;;6.18;1.63;;;18.80;99.90;;;;;;5007250;28;20038;-52
2022/10/05 09:08:30;;;;;;;4.90;1.30;;;18.70;99.90;;;;;;5028001;28;20065;-49
2022/10/05 09:11:25;;;;;;;8.82;1.80;;;18.60;99.90;;;;;;5026714;28;20080;-51
2022/10/05 09:13:53;;;;;;;5.88;1.77;;;18.70;99.90;;;;;;5026220;28;20472;-45
2022/10/05 09:16:57;;;;;;;6.70;1.60;;;18.80;99.90;;;;;;5029056;28;20120;-44
2022/10/05 09:19:50;;;;;;;10.63;1.83;;;18.80;99.90;;;;;;5028144;28;20298;-43
2022/10/05 09:22:18;;;;;;;7.20;1.88;;;19.10;99.90;;;;;;5028623;28;20036;-46
2022/10/05 09:24:55;;;;;;;4.50;1.65;;;19.40;99.90;;;;;;5028501;28;20048;-52
2022/10/05 09:27:34;;;;;;;5.88;1.80;;;19.50;99.90;;;;;;5027688;28;20022;-48
2022/10/05 09:30:19;;;;;;;9.65;1.88;;;19.70;99.90;;;;;;5018164;28;20439;-47
2022/10/05 09:32:51;;;;;;;6.32;1.40;;;20.30;99.90;;;;;;5014256;28;20030;-53
2022/10/05 09:35:41;;;;;;;7.07;1.40;;;20.60;99.90;;;;;;5024978;28;20079;-53
2022/10/05 09:38:45;;;;;;;6.68;1.92;;;20.70;99.90;;;;;;5021586;28;20080;-51
2022/10/05 09:41:19;;;;;;;7.22;1.20;;;20.50;99.90;;;;;;5024733;28;20029;-46
2022/10/05 09:44:17;;;;;;;7.97;1.77;;;20.00;99.90;;;;;;5029499;28;20765;-44
2022/10/05 09:46:58;;;;;;;6.82;1.65;;;19.80;99.90;;;;;;5030270;28;20021;-47
2022/10/05 09:49:35;;;;;;;7.68;1.70;;;19.60;99.90;;;;;;5024461;28;20377;-46
2022/10/05 09:52:19;;;;;;;8.93;2.05;;;19.40;99.90;;;;;;5027484;28;20367;-50
2022/10/05 09:55:18;;;;;;;9.35;1.60;;;19.40;99.90;;;;;;5029819;28;20017;-45
2022/10/05 09:57:53;;;;;;;11.27;1.67;;;19.90;99.90;;;;;;5028014;28;20041;-46
2022/10/05 10:00:45;;;;;;;9.05;1.50;;;20.60;99.90;;;;;;5026539;28;20457;-49
2022/10/05 10:03:38;;;;;;;9.18;1.98;;;20.60;99.90;;;;;;5017302;28;20117;-53
2022/10/05 10:06:22;;;;;;;6.00;1.30;;;20.50;99.90;;;;;;5028739;28;20033;-50
2022/10/05 10:09:25;;;;;;;7.65;1.77;;;20.20;99.90;;;;;;5031927;28;20088;-50
2022/10/05 10:12:16;;;;;;;6.07;1.50;;;19.70;99.90;;;;;;5031514;28;20017;-51
2022/10/05 10:15:03;;;;;;;11.23;2.05;;;19.50;99.90;;;;;;5032222;28;20030;-53
2022/10/05 10:17:46;;;;;;;7.35;1.88;;;19.30;99.90;;;;;;5039410;28;20116;-53
2022/10/05 10:20:16;;;;;;;10.15;2.00;;;19.20;99.90;;;;;;5026783;28;20033;-46
2022/10/05 10:22:44;;;;;;;10.32;1.90;;;19.20;99.90;;;;;;5017302;28;20025;-48
2022/10/05 10:25:39;;;;;;;10.23;1.70;;;19.20;99.90;;;;;;5028576;28;20040;-47
2022/10/05 10:28:33;;;;;;;8.05;1.92;;;19.40;99.90;;;;;;5032291;28;20028;-47
2022/10/05 10:31:07;;;;;;;9.98;1.58;;;20.20;99.90;;;;;;5030540;28;20064;-44
2022/10/05 10:34:01;;;;;;;7.03;1.13;;;21.90;99.90;;;;;;5032514;28;20026;-49
2022/10/05 10:36:44;;;;;;;6.70;1.27;;;23.60;99.90;;;;;;5032855;28;20033;-46
2022/10/05 10:39:19;;;;;;;9.45;1.63;;;23.10;99.90;;;;;;5032843;28;20090;-48
2022/10/05 10:42:14;;;;;;;9.23;1.50;;;21.80;99.90;;;;;;5031052;28;20512;-45
2022/10/05 10:45:13;;;;;;;12.43;1.77;;;20.80;99.90;;;;;;5029368;28;20041;-52
2022/10/05 10:47:51;;;;;;;6.20;1.40;;;20.10;99.90;;;;;;5030315;28;20052;-47
2022/10/05 10:50:53;;;;;;;9.10;1.88;;;19.60;99.90;;;;;;5029568;28;20342;-47
2022/10/05 10:53:37;;;;;;;8.05;1.67;;;19.30;99.90;;;;;;5032407;28;20033;-48
2022/10/05 10:56:27;;;;;;;6.20;1.50;;;19.30;99.90;;;;;;5030334;28;20028;-48
2022/10/05 10:59:17;;;;;;;11.82;2.00;;;19.20;99.90;;;;;;5028113;28;20033;-54
2022/10/05 11:01:50;;;;;;;9.00;1.77;;;19.10;99.90;;;;;;5028112;28;20031;-50
2022/10/05 11:04:31;;;;;;;7.90;1.80;;;18.90;99.90;;;;;;5029404;28;20056;-49
2022/10/05 11:07:24;;;;;;;9.25;1.63;;;18.80;99.90;;;;;;5028589;28;20067;-48
2022/10/05 11:10:11;;;;;;;9.88;1.73;;;18.70;99.90;;;;;;5023397;28;20115;-54
2022/10/05 11:13:27;;;;;;;6.35;2.03;;;18.60;99.90;;;;;;5030332;28;20109;-48
2022/10/05 11:16:11;;;;;;;7.43;1.50;;;18.50;99.90;;;;;;5013360;28;20037;-53
2022/10/05 11:19:01;;;;;;;7.70;1.80;;;18.30;99.90;;;;;;5029276;28;20404;-51
2022/10/05 11:22:02;;;;;;;8.25;2.63;;;18.30;99.90;;;;;;5029505;28;20052;-46
2022/10/05 11:24:56;;;;;;;8.07;1.98;;;18.30;99.90;;;;;;5030408;28;20120;-51
2022/10/05 11:27:52;;;;;;;14.05;2.00;;;18.30;99.90;;;;;;5030943;28;20018;-53
2022/10/05 11:30:53;;;;;;;10.35;1.77;;;18.20;99.90;;;;;;5030672;28;20018;-49
2022/10/05 11:33:34;;;;;;;9.90;2.17;;;18.10;99.90;;;;;;5027650;28;20711;-52
2022/10/05 11:36:29;;;;;;;10.50;1.70;;;18.10;99.90;;;;;;5030360;28;20033;-52
2022/10/05 11:39:27;;;;;;;8.90;1.60;;;18.00;99.90;;;;;;4994676;28;20161;-53
2022/10/05 11:42:20;;;;;;;10.90;1.80;;;18.10;99.90;;;;;;5029624;28;20488;-55
2022/10/05 11:45:10;;;;;;;9.48;1.45;;;18.10;99.90;;;;;;5029512;28;20037;-47
2022/10/05 11:48:13;;;;;;;12.45;1.92;;;18.10;99.90;;;;;;5027304;28;20030;-53
2022/10/05 11:51:00;;;;;;;10.20;1.95;;;18.00;99.90;;;;;;5029670;28;20469;-53
2022/10/05 11:53:37;;;;;;;6.50;2.58;;;17.90;99.90;;;;;;5031287;28;20071;-47
2022/10/05 11:56:21;;;;;;;9.45;2.13;;;17.90;99.90;;;;;;5030861;28;20025;-50
2022/10/05 11:59:18;;;;;;;16.27;2.70;;;17.90;99.90;;;;;;5030133;28;20030;-50
2022/10/05 12:01:49;;;;;;;9.65;1.95;;;17.90;99.90;;;;;;5029172;28;20021;-53
2022/10/05 12:04:45;;;;;;;7.70;2.47;;;17.90;99.90;;;;;;5032668;28;20033;-49
2022/10/05 12:07:37;;;;;;;10.32;2.15;;;17.90;99.90;;;;;;5031473;28;20030;-49
2022/10/05 12:10:13;;;;;;;11.10;2.53;;;17.80;99.90;;;;;;5021052;28;20036;-46
2022/10/05 12:12:50;;;;;;;12.95;2.72;;;17.70;99.90;;;;;;5031296;28;20151;-48
2022/10/05 12:15:34;;;;;;;10.98;2.47;;;17.50;99.90;;;;;;5031909;28;20515;-46
2022/10/05 12:18:07;;;;;;;13.55;2.35;;;17.40;99.90;;;;;;5031021;28;20112;-47
2022/10/05 12:20:40;;;;;;;9.55;2.20;;;17.30;99.90;;;;;;5030723;28;20108;-47
2022/10/05 12:23:38;;;;;;;11.82;2.65;;;17.10;99.90;;;;;;5031456;28;20033;-52
2022/10/05 12:26:10;;;;;;;14.77;2.42;;;17.10;99.90;;;;;;5024539;28;20061;-47
2022/10/05 12:28:57;;;;;;;9.90;2.30;;;17.10;99.90;;;;;;5028282;28;20024;-53
2022/10/05 12:31:33;;;;;;;17.30;2.67;;;17.10;99.90;;;;;;5029285;28;20056;-52
2022/10/05 12:34:18;;;;;;;11.35;2.45;;;17.20;99.90;;;;;;5030806;28;20035;-50
2022/10/05 12:36:47;;;;;;;10.65;2.50;;;17.10;99.90;;;;;;5030656;28;20025;-48
2022/10/05 12:39:37;;;;;;;16.45;2.53;;;17.10;99.90;;;;;;5030854;28;20021;-46
2022/10/05 12:42:19;;;;;;;12.18;2.30;;;17.20;99.90;;;;;;5027869;28;20034;-48
2022/10/05 12:44:53;;;;;;;12.18;2.67;;;17.30;99.90;;;;;;5030083;28;20037;-52
2022/10/05 12:47:31;;;;;;;17.08;2.35;;;17.30;99.90;;;;;;5030785;28;20037;-50
2022/10/05 12:50:19;;;;;;;12.43;2.65;;;17.40;99.90;;;;;;5027860;28;20029;-50
2022/10/05 12:52:55;;;;;;;12.98;2.40;;;17.50;99.90;;;;;;5044632;28;20113;-50
2022/10/05 12:55:36;;;;;;;10.57;2.53;;;17.40;99.90;;;;;;5027762;28;20018;-49
2022/10/05 12:58:17;;;;;;;9.77;2.42;;;17.50;99.90;;;;;;5027679;28;20059;-52
2022/10/05 13:00:51;;;;;;;12.27;2.38;;;17.50;99.90;;;;;;5029705;28;20025;-52
2022/10/05 13:03:24;;;;;;;13.93;3.03;;;17.50;99.90;;;;;;5029596;28;20048;-49
2022/10/05 13:06:04;;;;;;;17.90;2.83;;;17.60;99.90;;;;;;5023454;28;20026;-45
2022/10/05 13:08:52;;;;;;;18.65;3.10;;;17.60;99.90;;;;;;5023387;28;20464;-47
2022/10/05 13:11:57;;;;;;;17.60;2.70;;;17.60;99.90;;;;;;5028554;28;20025;-47
2022/10/05 13:14:57;;;;;;;14.02;2.75;;;17.70;99.90;;;;;;5031483;28;20041;-48
2022/10/05 13:17:28;;;;;;;19.52;2.85;;;17.70;99.90;;;;;;5025845;28;20388;-48
2022/10/05 13:20:01;;;;;;;13.27;2.67;;;17.80;99.90;;;;;;5029661;28;20459;-46
2022/10/05 13:22:38;;;;;;;14.43;2.70;;;17.80;99.90;;;;;;5024575;28;20051;-50
2022/10/05 13:25:12;;;;;;;16.75;2.95;;;17.80;99.90;;;;;;5034349;28;20064;-48
2022/10/05 13:28:01;;;;;;;17.58;2.95;;;17.80;99.90;;;;;;5034331;28;20025;-53
2022/10/05 13:30:27;;;;;;;15.67;3.10;;;17.60;99.90;;;;;;5031676;28;20073;-45
2022/10/05 13:33:04;;;;;;;18.08;2.70;;;17.60;99.90;;;;;;5033767;28;20026;-46
2022/10/05 13:35:51;;;;;;;16.65;3.58;;;17.50;99.90;;;;;;5031507;28;20033;-47
2022/10/05 13:38:25;;;;;;;13.63;2.40;;;17.40;99.90;;;;;;5030806;28;20037;-47
2022/10/05 13:41:06;;;;;;;15.02;3.42;;;17.40;99.90;;;;;;5033397;28;21198;-49
2022/10/05 13:43:51;;;;;;;14.70;2.72;;;17.40;99.90;;;;;;5032885;28;20468;-51
2022/10/05 13:46:28;;;;;;;13.93;2.78;;;17.30;99.90;;;;;;5032931;28;20029;-49
2022/10/05 13:49:21;;;;;;;14.18;2.70;;;17.40;99.90;;;;;;5033290;28;20036;-48
2022/10/05 13:52:27;;;;;;;16.92;2.88;;;17.30;99.90;;;;;;5027370;28;20459;-49
2022/10/05 13:55:04;;;;;;;16.60;3.03;;;17.40;99.90;;;;;;5019558;28;20083;-48
2022/10/05 13:57:47;;;;;;;15.05;2.70;;;17.40;99.90;;;;;;5033540;28;20091;-55
2022/10/05 14:00:16;;;;;;;14.85;2.50;;;17.40;99.90;;;;;;5033391;28;20156;-49
2022/10/05 14:02:43;;;;;;;;;;;17.30;99.90;;;;;;5033291;28;20026;-53
2022/10/05 14:05:15;;;;;;;15.25;3.10;;;17.30;99.90;;;;;;5032949;28;20286;-50